createdAt,value
2019-05-30T00:00:22.654Z,92064.41
2019-05-30T00:03:10.218Z,92067.59
2019-05-30T00:05:58.393Z,92062.59
2019-05-30T00:08:46.964Z,92063.23
2019-05-30T00:11:35.038Z,92066.31
2019-05-30T00:14:23.409Z,92065.33
2019-05-30T00:17:12.219Z,92066.92
2019-05-30T00:20:00.952Z,92075.10
2019-05-30T00:22:49.720Z,92071.39
2019-05-30T00:25:38.363Z,92080.05
2019-05-30T00:28:26.755Z,92070.08
2019-05-30T00:31:15.189Z,92071.30
2019-05-30T00:34:04.208Z,92075.75
2019-05-30T00:36:52.314Z,92069.89
2019-05-30T00:39:40.969Z,92073.77
2019-05-30T00:42:29.258Z,92073.83
2019-05-30T00:45:21.254Z,92077.68
2019-05-30T00:48:07.690Z,92068.45
2019-05-30T00:50:56.370Z,92075.81
2019-05-30T00:53:44.527Z,92066.17
2019-05-30T00:56:32.973Z,92056.59
2019-05-30T00:59:20.794Z,92064.13
2019-05-30T01:02:09.095Z,92057.84
2019-05-30T01:04:57.173Z,92063.38
2019-05-30T01:07:45.495Z,92073.77
2019-05-30T01:10:33.594Z,92061.78
2019-05-30T01:13:22.097Z,92063.70
2019-05-30T01:16:10.717Z,92063.57
2019-05-30T01:18:59.054Z,92066.07
2019-05-30T01:21:46.856Z,92069.01
2019-05-30T01:24:34.772Z,92063.04
2019-05-30T01:27:23.362Z,92063.00
2019-05-30T01:30:12.020Z,92059.52
2019-05-30T01:33:00.105Z,92063.61
2019-05-30T01:35:48.391Z,92061.39
2019-05-30T01:38:36.988Z,92062.30
2019-05-30T01:41:24.800Z,92062.90
2019-05-30T01:44:12.948Z,92066.87
2019-05-30T01:47:01.997Z,92064.53
2019-05-30T01:49:50.416Z,92067.94
2019-05-30T01:52:38.650Z,92061.56
2019-05-30T01:55:27.052Z,92057.59
2019-05-30T01:58:15.187Z,92062.67
2019-05-30T02:01:19.139Z,92069.27
2019-05-30T02:03:53.049Z,92071.77
2019-05-30T02:06:41.257Z,92072.33
2019-05-30T02:09:29.372Z,92078.48
2019-05-30T02:12:17.500Z,92073.06
2019-05-30T02:15:05.574Z,92074.63
2019-05-30T02:17:53.304Z,92074.53
2019-05-30T02:20:41.575Z,92081.62
2019-05-30T02:23:29.822Z,92083.25
2019-05-30T02:26:18.291Z,92075.67
2019-05-30T02:29:06.500Z,92078.86
2019-05-30T02:31:54.554Z,92077.79
2019-05-30T02:34:43.012Z,92082.97
2019-05-30T02:37:30.909Z,92091.96
2019-05-30T02:40:19.593Z,92087.44
2019-05-30T02:43:11.496Z,92094.59
2019-05-30T02:45:57.694Z,92093.05
2019-05-30T02:48:58.251Z,92089.27
2019-05-30T02:51:35.210Z,92096.11
2019-05-30T02:54:23.389Z,92093.38
2019-05-30T02:57:12.615Z,92098.84
2019-05-30T03:00:02.175Z,92093.83
2019-05-30T03:02:49.966Z,92105.09
2019-05-30T03:05:37.869Z,92114.57
2019-05-30T03:08:26.254Z,92116.53
2019-05-30T03:11:15.546Z,92123.64
2019-05-30T03:14:04.917Z,92119.20
2019-05-30T03:16:53.405Z,92127.68
2019-05-30T03:19:41.868Z,92134.22
2019-05-30T03:22:30.180Z,92128.86
2019-05-30T03:25:19.042Z,92134.78
2019-05-30T03:28:07.510Z,92135.17
2019-05-30T03:30:56.617Z,92133.85
2019-05-30T03:33:45.026Z,92132.84
2019-05-30T03:36:33.001Z,92132.58
2019-05-30T03:39:21.104Z,92146.16
2019-05-30T03:42:11.318Z,92136.91
2019-05-30T03:44:58.535Z,92142.27
2019-05-30T03:47:48.924Z,92146.59
2019-05-30T03:50:38.687Z,92143.22
2019-05-30T03:53:27.095Z,92149.08
2019-05-30T03:56:17.462Z,92144.14
2019-05-30T03:59:13.053Z,92144.56
2019-05-30T04:02:23.035Z,92144.00
2019-05-30T04:05:14.194Z,92146.30
2019-05-30T04:08:04.017Z,92146.27
2019-05-30T04:10:53.903Z,92156.42
2019-05-30T04:13:44.552Z,92162.08
2019-05-30T04:16:34.373Z,92164.91
2019-05-30T04:19:22.308Z,92173.55
2019-05-30T04:22:11.571Z,92173.84
2019-05-30T04:25:00.589Z,92172.86
2019-05-30T04:27:48.971Z,92180.06
2019-05-30T04:30:37.062Z,92186.25
2019-05-30T04:33:33.125Z,92187.85
2019-05-30T04:36:18.902Z,92188.17
2019-05-30T04:39:08.624Z,92194.88
2019-05-30T04:41:56.508Z,92191.33
2019-05-30T04:44:44.968Z,92195.66
2019-05-30T04:47:32.643Z,92198.61
2019-05-30T04:50:21.208Z,92201.17
2019-05-30T04:53:10.208Z,92201.23
2019-05-30T04:55:59.025Z,92206.31
2019-05-30T04:58:47.161Z,92210.05
2019-05-30T05:01:35.584Z,92217.45
2019-05-30T05:04:23.918Z,92212.88
2019-05-30T05:07:13.594Z,92219.47
2019-05-30T05:10:02.098Z,92223.02
2019-05-30T05:12:50.537Z,92227.51
2019-05-30T05:15:38.933Z,92229.09
2019-05-30T05:18:26.994Z,92226.03
2019-05-30T05:21:15.399Z,92234.66
2019-05-30T05:24:03.447Z,92230.42
2019-05-30T05:26:51.817Z,92232.59
2019-05-30T05:29:40.323Z,92236.13
2019-05-30T05:32:28.719Z,92236.39
2019-05-30T05:35:16.819Z,92240.77
2019-05-30T05:38:04.916Z,92242.59
2019-05-30T05:40:53.372Z,92240.28
2019-05-30T05:43:41.715Z,92245.57
2019-05-30T05:46:30.395Z,92244.36
2019-05-30T05:49:18.824Z,92245.02
2019-05-30T05:52:06.569Z,92246.33
2019-05-30T05:54:54.948Z,92245.97
2019-05-30T05:57:43.440Z,92250.14
2019-05-30T06:00:31.682Z,92237.00
2019-05-30T06:03:20.397Z,92238.05
2019-05-30T06:06:08.623Z,92243.60
2019-05-30T06:08:57.152Z,92243.25
2019-05-30T06:11:48.848Z,92253.45
2019-05-30T06:14:35.425Z,92252.66
2019-05-30T06:17:24.915Z,92247.39
2019-05-30T06:20:14.763Z,92243.92
2019-05-30T06:23:03.831Z,92251.06
2019-05-30T06:25:53.184Z,92248.30
2019-05-30T06:28:42.467Z,92244.72
2019-05-30T06:31:31.970Z,92240.87
2019-05-30T06:34:32.826Z,92248.01
2019-05-30T06:37:13.290Z,92251.00
2019-05-30T06:40:02.317Z,92252.07
2019-05-30T06:42:52.010Z,92250.08
2019-05-30T06:45:41.202Z,92256.20
2019-05-30T06:48:31.073Z,92263.67
2019-05-30T06:51:21.043Z,92255.18
2019-05-30T06:54:10.242Z,92259.45
2019-05-30T06:56:59.017Z,92256.89
2019-05-30T06:59:48.301Z,92256.77
2019-05-30T07:02:37.948Z,92249.47
2019-05-30T07:05:29.747Z,92259.69
2019-05-30T07:08:18.444Z,92252.27
2019-05-30T07:11:07.346Z,92249.37
2019-05-30T07:13:56.650Z,92253.66
2019-05-30T07:16:45.919Z,92261.05
2019-05-30T07:19:37.732Z,92254.98
2019-05-30T07:22:26.280Z,92251.92
2019-05-30T07:25:16.113Z,92247.50
2019-05-30T07:28:05.462Z,92245.18
2019-05-30T07:30:55.120Z,92250.70
2019-05-30T07:33:44.219Z,92240.06
2019-05-30T07:36:34.465Z,92245.36
2019-05-30T07:39:27.069Z,92242.72
2019-05-30T07:42:15.362Z,92246.70
2019-05-30T07:45:05.914Z,92244.52
2019-05-30T07:47:55.400Z,92241.80
2019-05-30T07:50:44.327Z,92245.76
2019-05-30T07:53:34.831Z,92245.91
2019-05-30T07:56:24.664Z,92245.03
2019-05-30T07:59:13.865Z,92242.66
2019-05-30T08:02:03.349Z,92250.27
2019-05-30T08:04:53.038Z,92240.13
2019-05-30T08:07:42.427Z,92244.81
2019-05-30T08:10:32.085Z,92236.66
2019-05-30T08:13:21.138Z,92236.13
2019-05-30T08:16:10.388Z,92239.36
2019-05-30T08:18:59.470Z,92238.98
2019-05-30T08:21:48.986Z,92236.48
2019-05-30T08:24:38.853Z,92231.89
2019-05-30T08:27:28.368Z,92231.89
2019-05-30T08:30:18.288Z,92235.92
2019-05-30T08:33:08.321Z,92242.63
2019-05-30T08:35:57.918Z,92243.25
2019-05-30T08:38:48.338Z,92236.92
2019-05-30T08:41:37.738Z,92236.92
2019-05-30T08:44:27.077Z,92240.98
2019-05-30T08:47:16.371Z,92248.22
2019-05-30T08:50:06.606Z,92243.38
2019-05-30T08:52:56.348Z,92245.98
2019-05-30T08:55:45.847Z,92250.20
2019-05-30T08:58:36.699Z,92239.55
2019-05-30T09:01:26.124Z,92239.55
2019-05-30T09:04:15.520Z,92247.66
2019-05-30T09:07:04.729Z,92244.98
2019-05-30T09:09:54.479Z,92245.86
2019-05-30T09:12:48.727Z,92247.33
2019-05-30T09:15:34.394Z,92247.78
2019-05-30T09:18:26.208Z,92250.81
2019-05-30T09:21:15.846Z,92241.28
2019-05-30T09:24:05.609Z,92241.28
2019-05-30T09:26:54.980Z,92243.34
2019-05-30T09:29:44.747Z,92241.75
2019-05-30T09:32:34.457Z,92240.33
2019-05-30T09:35:23.855Z,92241.23
2019-05-30T09:38:13.189Z,92241.45
2019-05-30T09:41:02.484Z,92248.65
2019-05-30T09:43:51.594Z,92240.71
2019-05-30T09:46:41.368Z,92240.47
2019-05-30T09:49:32.101Z,92236.33
2019-05-30T09:52:21.409Z,92232.41
2019-05-30T09:55:12.133Z,92232.78
2019-05-30T09:58:01.554Z,92238.48
2019-05-30T10:00:52.303Z,92236.77
2019-05-30T10:03:43.229Z,92232.00
2019-05-30T10:06:32.511Z,92241.00
2019-05-30T10:09:21.627Z,92227.88
2019-05-30T10:12:10.961Z,92230.81
2019-05-30T10:15:00.347Z,92232.89
2019-05-30T10:17:52.849Z,92232.89
2019-05-30T10:20:40.838Z,92226.90
2019-05-30T10:23:29.934Z,92233.10
2019-05-30T10:26:19.473Z,92233.10
2019-05-30T10:29:08.517Z,92228.22
2019-05-30T10:31:57.364Z,92224.35
2019-05-30T10:34:47.874Z,92231.69
2019-05-30T10:37:37.702Z,92228.25
2019-05-30T10:40:27.196Z,92228.25
2019-05-30T10:43:16.692Z,92222.86
2019-05-30T10:46:05.640Z,92231.55
2019-05-30T10:48:54.920Z,92223.47
2019-05-30T10:51:46.165Z,92223.47
2019-05-30T10:54:34.945Z,92222.98
2019-05-30T10:57:24.317Z,92222.42
2019-05-30T11:00:15.334Z,92229.41
2019-05-30T11:03:04.803Z,92226.91
2019-05-30T11:06:03.370Z,92226.91
2019-05-30T11:08:56.692Z,92227.02
2019-05-30T11:11:46.622Z,92230.30
2019-05-30T11:14:36.161Z,92224.54
2019-05-30T11:17:25.377Z,92224.54
2019-05-30T11:20:14.983Z,92228.78
2019-05-30T11:23:04.738Z,92231.68
2019-05-30T11:25:54.701Z,92232.81
2019-05-30T11:28:44.331Z,92220.16
2019-05-30T11:31:33.609Z,92219.50
2019-05-30T11:34:23.011Z,92219.50
2019-05-30T11:37:19.421Z,92213.91
2019-05-30T11:40:03.019Z,92213.91
2019-05-30T11:42:53.367Z,92219.55
2019-05-30T11:45:42.806Z,92221.98
2019-05-30T11:48:32.418Z,92211.97
2019-05-30T11:51:21.713Z,92215.56
2019-05-30T11:54:11.588Z,92213.97
2019-05-30T11:57:01.273Z,92214.73
2019-05-30T11:59:50.626Z,92217.70
2019-05-30T12:02:39.876Z,92204.13
2019-05-30T12:05:29.395Z,92200.59
2019-05-30T12:08:18.909Z,92204.07
2019-05-30T12:11:07.627Z,92210.73
2019-05-30T12:13:57.401Z,92205.02
2019-05-30T12:16:46.917Z,92203.17
2019-05-30T12:19:36.116Z,92209.27
2019-05-30T12:22:25.359Z,92209.59
2019-05-30T12:25:15.903Z,92201.78
2019-05-30T12:28:05.102Z,92211.09
2019-05-30T12:30:59.444Z,92206.63
2019-05-30T12:33:45.243Z,92218.22
2019-05-30T12:36:34.535Z,92214.32
2019-05-30T12:39:23.378Z,92197.69
2019-05-30T12:42:12.630Z,92203.09
2019-05-30T12:45:06.663Z,92201.34
2019-05-30T12:47:53.002Z,92205.16
2019-05-30T12:50:42.960Z,92204.91
2019-05-30T12:53:32.429Z,92204.89
2019-05-30T12:56:21.910Z,92199.73
2019-05-30T12:59:11.000Z,92206.31
2019-05-30T13:02:01.258Z,92203.85
2019-05-30T13:04:50.133Z,92202.58
2019-05-30T13:07:39.459Z,92198.06
2019-05-30T13:10:29.241Z,92201.16
2019-05-30T13:13:18.720Z,92196.51
2019-05-30T13:16:09.032Z,92200.88
2019-05-30T13:18:58.416Z,92203.05
2019-05-30T13:21:48.079Z,92207.06
2019-05-30T13:24:37.948Z,92205.97
2019-05-30T13:27:26.916Z,92203.78
2019-05-30T13:30:17.185Z,92205.25
2019-05-30T13:33:06.954Z,92210.41
2019-05-30T13:35:57.030Z,92210.80
2019-05-30T13:38:46.594Z,92207.82
2019-05-30T13:41:36.017Z,92209.74
2019-05-30T13:44:24.805Z,92205.14
2019-05-30T13:47:14.350Z,92204.02
2019-05-30T13:50:08.635Z,92204.39
2019-05-30T13:52:54.507Z,92208.47
2019-05-30T13:55:43.571Z,92206.02
2019-05-30T13:58:32.673Z,92203.76
2019-05-30T14:01:22.184Z,92202.54
2019-05-30T14:04:11.588Z,92198.97
2019-05-30T14:07:00.421Z,92191.59
2019-05-30T14:09:50.220Z,92200.48
2019-05-30T14:12:39.629Z,92188.30
2019-05-30T14:15:29.055Z,92200.29
2019-05-30T14:18:18.295Z,92204.25
2019-05-30T14:21:07.582Z,92207.21
2019-05-30T14:23:56.485Z,92196.70
2019-05-30T14:26:45.955Z,92203.63
2019-05-30T14:29:35.122Z,92201.36
2019-05-30T14:32:24.770Z,92199.37
2019-05-30T14:35:14.184Z,92200.61
2019-05-30T14:38:04.594Z,92215.65
2019-05-30T14:40:54.308Z,92210.28
2019-05-30T14:43:43.585Z,92212.13
2019-05-30T14:46:33.319Z,92220.48
2019-05-30T14:49:22.630Z,92220.48
2019-05-30T14:52:12.132Z,92219.94
2019-05-30T14:55:02.940Z,92212.56
2019-05-30T14:57:52.225Z,92210.94
2019-05-30T15:00:42.457Z,92205.57
2019-05-30T15:03:31.829Z,92210.34
2019-05-30T15:06:21.206Z,92204.79
2019-05-30T15:09:20.175Z,92210.44
2019-05-30T15:12:01.404Z,92208.00
2019-05-30T15:14:50.843Z,92208.00
2019-05-30T15:17:40.197Z,92207.03
2019-05-30T15:20:29.032Z,92217.40
2019-05-30T15:23:18.491Z,92211.86
2019-05-30T15:26:08.257Z,92208.91
2019-05-30T15:28:57.458Z,92209.63
2019-05-30T15:31:46.788Z,92206.53
2019-05-30T15:34:36.107Z,92210.58
2019-05-30T15:37:25.302Z,92214.52
2019-05-30T15:40:15.321Z,92204.62
2019-05-30T15:43:05.156Z,92204.34
2019-05-30T15:45:54.943Z,92206.95
2019-05-30T15:48:44.219Z,92206.95
2019-05-30T15:51:33.493Z,92211.72
2019-05-30T15:54:22.989Z,92210.47
2019-05-30T15:57:13.355Z,92213.89
2019-05-30T16:00:03.506Z,92212.62
2019-05-30T16:02:53.245Z,92211.47
2019-05-30T16:05:42.686Z,92212.59
2019-05-30T16:08:32.266Z,92213.22
2019-05-30T16:11:21.302Z,92215.96
2019-05-30T16:14:11.123Z,92209.98
2019-05-30T16:17:00.363Z,92208.17
2019-05-30T16:19:49.548Z,92208.91
2019-05-30T16:22:39.216Z,92199.91
2019-05-30T16:25:34.335Z,92207.98
2019-05-30T16:28:19.998Z,92197.03
2019-05-30T16:31:09.649Z,92189.55
2019-05-30T16:33:58.911Z,92197.92
2019-05-30T16:36:48.210Z,92195.88
2019-05-30T16:39:37.605Z,92199.59
2019-05-30T16:42:27.120Z,92195.77
2019-05-30T16:45:20.252Z,92198.56
2019-05-30T16:48:07.378Z,92196.27
2019-05-30T16:50:56.174Z,92193.97
2019-05-30T16:53:44.995Z,92197.63
2019-05-30T16:56:34.549Z,92204.23
2019-05-30T16:59:23.685Z,92200.61
2019-05-30T17:02:14.776Z,92197.01
2019-05-30T17:05:04.964Z,92193.20
2019-05-30T17:07:54.222Z,92194.20
2019-05-30T17:10:43.448Z,92192.63
2019-05-30T17:13:33.056Z,92194.33
2019-05-30T17:16:22.164Z,92193.52
2019-05-30T17:19:11.127Z,92183.09
2019-05-30T17:22:00.915Z,92184.98
2019-05-30T17:24:50.148Z,92191.97
2019-05-30T17:27:39.443Z,92192.08
2019-05-30T17:30:29.313Z,92196.02
2019-05-30T17:33:21.540Z,92193.53
2019-05-30T17:36:13.184Z,92197.11
2019-05-30T17:39:02.414Z,92198.11
2019-05-30T17:41:51.737Z,92211.42
2019-05-30T17:44:41.636Z,92207.22
2019-05-30T17:47:33.862Z,92212.86
2019-05-30T17:50:21.927Z,92209.16
2019-05-30T17:53:10.739Z,92209.17
2019-05-30T17:56:00.155Z,92208.59
2019-05-30T17:58:49.498Z,92217.14
2019-05-30T18:01:39.011Z,92211.27
2019-05-30T18:04:28.770Z,92205.72
2019-05-30T18:07:18.500Z,92214.38
2019-05-30T18:10:09.319Z,92210.59
2019-05-30T18:12:58.761Z,92211.69
2019-05-30T18:15:48.124Z,92225.92
2019-05-30T18:18:37.393Z,92220.11
2019-05-30T18:21:27.475Z,92231.27
2019-05-30T18:24:17.391Z,92229.44
2019-05-30T18:27:07.163Z,92235.55
2019-05-30T18:29:56.503Z,92234.23
2019-05-30T18:32:45.545Z,92236.95
2019-05-30T18:35:35.169Z,92240.86
2019-05-30T18:38:24.688Z,92246.35
2019-05-30T18:41:16.492Z,92247.43
2019-05-30T18:44:05.158Z,92248.09
2019-05-30T18:46:54.597Z,92246.06
2019-05-30T18:49:43.596Z,92245.84
2019-05-30T18:52:32.778Z,92248.87
2019-05-30T18:55:22.175Z,92261.66
2019-05-30T18:58:11.740Z,92264.87
2019-05-30T19:01:01.087Z,92274.35
2019-05-30T19:03:51.174Z,92283.28
2019-05-30T19:06:40.975Z,92282.75
2019-05-30T19:09:31.791Z,92286.27
2019-05-30T19:12:20.499Z,92283.20
2019-05-30T19:15:10.243Z,92280.99
2019-05-30T19:18:08.995Z,92283.18
2019-05-30T19:20:56.792Z,92289.87
2019-05-30T19:23:46.149Z,92288.87
2019-05-30T19:26:38.434Z,92297.39
2019-05-30T19:29:28.957Z,92298.23
2019-05-30T19:32:18.951Z,92296.16
2019-05-30T19:35:19.084Z,92293.48
2019-05-30T19:38:08.701Z,92294.91
2019-05-30T19:40:58.360Z,92295.20
2019-05-30T19:43:47.844Z,92301.59
2019-05-30T19:46:38.382Z,92297.55
2019-05-30T19:49:34.750Z,92294.66
2019-05-30T19:52:24.304Z,92295.37
2019-05-30T19:55:14.377Z,92301.19
2019-05-30T19:58:03.650Z,92301.05
2019-05-30T20:00:58.770Z,92300.50
2019-05-30T20:03:49.809Z,92301.03
2019-05-30T20:06:39.391Z,92303.95
2019-05-30T20:09:29.057Z,92302.23
2019-05-30T20:12:18.564Z,92303.51
2019-05-30T20:15:08.941Z,92304.98
2019-05-30T20:17:58.308Z,92305.03
2019-05-30T20:20:56.474Z,92317.90
2019-05-30T20:23:49.478Z,92307.45
2019-05-30T20:26:29.381Z,92311.41
2019-05-30T20:29:18.825Z,92308.28
2019-05-30T20:32:08.216Z,92309.06
2019-05-30T20:34:57.954Z,92308.02
2019-05-30T20:37:47.220Z,92313.66
2019-05-30T20:40:36.912Z,92309.77
2019-05-30T20:43:26.831Z,92304.23
2019-05-30T20:46:23.127Z,92303.98
2019-05-30T20:49:06.574Z,92297.88
2019-05-30T20:51:56.185Z,92293.16
2019-05-30T20:54:45.738Z,92293.05
2019-05-30T20:57:34.595Z,92297.44
2019-05-30T21:00:27.010Z,92291.37
2019-05-30T21:03:16.214Z,92302.42
2019-05-30T21:06:05.491Z,92307.20
2019-05-30T21:08:55.925Z,92301.45
2019-05-30T21:11:46.742Z,92304.47
2019-05-30T21:14:37.288Z,92311.25
2019-05-30T21:17:28.835Z,92311.03
2019-05-30T21:20:19.045Z,92311.55
2019-05-30T21:23:08.792Z,92312.59
2019-05-30T21:25:58.389Z,92317.98
2019-05-30T21:28:47.646Z,92322.97
2019-05-30T21:31:37.288Z,92318.88
2019-05-30T21:34:27.060Z,92317.55
2019-05-30T21:37:15.955Z,92317.48
2019-05-30T21:40:06.439Z,92319.34
2019-05-30T21:43:05.836Z,92323.09
2019-05-30T21:45:47.063Z,92316.44
2019-05-30T21:48:36.411Z,92311.11
2019-05-30T21:51:25.555Z,92314.22
2019-05-30T21:54:14.758Z,92327.03
2019-05-30T21:57:04.053Z,92319.06
2019-05-30T21:59:53.580Z,92319.95
2019-05-30T22:02:46.615Z,92319.12
2019-05-30T22:05:35.697Z,92318.80
2019-05-30T22:08:25.024Z,92315.91
2019-05-30T22:11:14.695Z,92313.62
2019-05-30T22:14:03.761Z,92321.27
2019-05-30T22:16:53.053Z,92323.77
2019-05-30T22:19:42.389Z,92327.31
2019-05-30T22:22:32.206Z,92313.17
2019-05-30T22:25:21.819Z,92315.70
2019-05-30T22:28:10.656Z,92318.46
2019-05-30T22:30:59.955Z,92326.72
2019-05-30T22:33:49.417Z,92326.41
2019-05-30T22:36:38.761Z,92318.33
2019-05-30T22:39:28.008Z,92321.73
2019-05-30T22:42:17.453Z,92318.11
2019-05-30T22:45:07.315Z,92318.23
2019-05-30T22:47:56.773Z,92322.80
2019-05-30T22:50:46.694Z,92318.41
2019-05-30T22:53:35.615Z,92320.36
2019-05-30T22:56:25.010Z,92321.09
2019-05-30T22:59:14.477Z,92321.08
2019-05-30T23:02:04.311Z,92321.87
2019-05-30T23:04:54.296Z,92315.97
2019-05-30T23:07:43.639Z,92314.02
2019-05-30T23:10:33.252Z,92317.31
2019-05-30T23:13:23.162Z,92313.13
2019-05-30T23:16:12.113Z,92317.25
2019-05-30T23:19:04.650Z,92317.51
2019-05-30T23:21:55.032Z,92315.41
2019-05-30T23:24:44.676Z,92314.41
2019-05-30T23:27:33.918Z,92311.62
2019-05-30T23:30:23.416Z,92319.27
2019-05-30T23:33:12.832Z,92320.22
2019-05-30T23:36:00.992Z,92318.33
2019-05-30T23:38:50.736Z,92315.48
2019-05-30T23:41:39.115Z,92306.71
2019-05-30T23:44:27.169Z,92310.08
2019-05-30T23:47:15.748Z,92303.37
2019-05-30T23:50:03.931Z,92304.38
2019-05-30T23:52:52.125Z,92297.72
2019-05-30T23:55:40.495Z,92297.61
2019-05-30T23:58:29.012Z,92301.67
